Impacts TAF Board
For situational awareness. Not to be used for flight planning purposes.
IDs:

KFLL - Ft Lauderdale-Hollyw, FL, US

Issued at 0520 UTC 22 Oct 2018
Updated at 0619 UTC 22 Oct 2018
Potential Impact None Slight Moderate High
Time<<22/19Z 22/20Z 22/21Z 22/22Z 22/23Z 23/00Z 23/01Z 23/02Z 23/03Z 23/04Z 23/05Z 23/06Z 23/07Z>>
Type PRVL PRVL PRVL PRVL PRVL PRVL PRVL PRVL PRVL PRVL PRVL PRVL PRVL
VIS >6 >6 >6 >6 >6 >6 >6 >6 >6 >6 >6 >6 >6
CIG 50 50 50 50 50 50 -- -- -- -- -- -- --
Cover BKN BKN BKN BKN BKN BKN SCT SCT SCT SCT SCT SCT SCT
FltCat VFR VFR VFR VFR VFR VFR VFR VFR VFR VFR VFR VFR VFR
WX -- -- -- -- -- -- -- -- -- -- -- -- --
WDir 60 60 60 60 60 60 60 60 60 60 60 60 60
WSpd 15 15 15 15 15 15 8 8 8 8 8 8 8
WGst 25 25 25 25 25 25 -- -- -- -- -- -- --
Raw TAF
KFLL 220520Z 2206/2312 05010KT P6SM FEW035 BKN080
  FM221400 06015G25KT P6SM SCT025 BKN050
  FM230100 06008KT P6SM FEW025 SCT050


METAR Board
Radar Display
Forecast Discussion
For situational awareness. Not to be used for flight planning purposes.